createdAt,value
2022-08-19T00:01:13.044Z,8.35
2022-08-19T00:04:01.459Z,8.52
2022-08-19T00:06:49.496Z,8.82
2022-08-19T00:09:36.632Z,8.85
2022-08-19T00:12:16.470Z,9.07
2022-08-19T00:15:10.437Z,8.23
2022-08-19T00:17:52.890Z,8.02
2022-08-19T00:20:39.450Z,8.75
2022-08-19T00:23:26.426Z,8.35
2022-08-19T00:26:06.517Z,8.85
2022-08-19T00:28:54.442Z,8.07
2022-08-19T00:31:42.427Z,7.95
2022-08-19T00:34:23.727Z,8.82
2022-08-19T00:37:12.429Z,7.65
2022-08-19T00:40:00.514Z,8.60
2022-08-19T00:42:40.489Z,8.80
2022-08-19T00:45:30.463Z,7.90
2022-08-19T00:48:15.192Z,7.78
2022-08-19T00:51:03.405Z,10.77
2022-08-19T00:53:44.543Z,8.55
2022-08-19T00:56:32.417Z,8.80
2022-08-19T00:59:56.169Z,8.02
2022-08-19T01:02:27.413Z,8.38
2022-08-19T01:05:12.700Z,8.85
2022-08-19T01:07:59.396Z,8.02
2022-08-19T01:10:55.409Z,8.55
2022-08-19T01:13:50.450Z,7.80
2022-08-19T01:16:38.516Z,7.65
2022-08-19T01:19:44.363Z,8.90
2022-08-19T01:22:33.725Z,9.10
2022-08-19T01:25:15.054Z,8.48
2022-08-19T01:27:56.646Z,8.75
2022-08-19T01:30:51.401Z,7.88
2022-08-19T01:33:32.107Z,8.35
2022-08-19T01:36:28.393Z,8.10
2022-08-19T01:39:13.809Z,7.72
2022-08-19T01:42:02.370Z,8.02
2022-08-19T01:44:42.779Z,8.50
2022-08-19T01:47:29.336Z,8.27
2022-08-19T01:50:18.364Z,7.90
2022-08-19T01:53:06.536Z,7.95
2022-08-19T01:55:49.610Z,8.43
2022-08-19T01:58:41.368Z,8.98
2022-08-19T02:01:28.399Z,8.93
2022-08-19T02:04:11.468Z,9.05
2022-08-19T02:06:58.321Z,8.57
2022-08-19T02:09:39.467Z,9.82
2022-08-19T02:12:26.324Z,9.88
2022-08-19T02:15:08.520Z,10.32
2022-08-19T02:17:56.310Z,9.95
2022-08-19T02:20:36.783Z,10.02
2022-08-19T02:23:24.305Z,10.77
2022-08-19T02:26:11.317Z,9.73
2022-08-19T02:28:58.309Z,9.60
2022-08-19T02:31:47.296Z,9.35
2022-08-19T02:34:27.751Z,10.88
2022-08-19T02:37:35.072Z,10.45
2022-08-19T02:40:16.170Z,10.18
2022-08-19T02:43:03.307Z,9.65
2022-08-19T02:45:43.805Z,10.10
2022-08-19T02:48:32.289Z,9.98
2022-08-19T02:51:21.892Z,10.45
2022-08-19T03:13:25.112Z,13.33
2022-08-19T03:18:54.101Z,13.55
2022-08-19T03:21:42.107Z,16.27
2022-08-19T03:24:23.358Z,14.52
2022-08-19T03:27:13.054Z,14.05
2022-08-19T03:29:53.183Z,12.40
2022-08-19T03:32:45.295Z,13.30
2022-08-19T03:35:25.225Z,13.13
2022-08-19T03:38:14.088Z,13.30
2022-08-19T03:40:54.158Z,12.98
2022-08-19T03:43:46.091Z,12.00
2022-08-19T03:46:29.262Z,11.85
2022-08-19T03:49:16.054Z,13.27
2022-08-19T03:51:58.279Z,11.05
2022-08-19T03:54:46.094Z,11.00
2022-08-19T03:57:31.671Z,11.77
2022-08-19T04:00:20.062Z,11.00
2022-08-19T04:03:00.874Z,11.07
2022-08-19T04:05:48.097Z,10.52
2022-08-19T04:08:28.224Z,11.40
2022-08-19T04:11:21.054Z,10.73
2022-08-19T04:14:08.032Z,9.90
2022-08-19T04:16:56.151Z,9.35
2022-08-19T04:19:38.052Z,8.98
2022-08-19T04:22:26.039Z,10.50
2022-08-19T04:25:09.136Z,10.13
2022-08-19T04:27:56.012Z,11.05
2022-08-19T04:30:42.976Z,10.25
2022-08-19T04:33:28.634Z,9.90
2022-08-19T04:36:15.979Z,9.23
2022-08-19T04:39:02.043Z,10.05
2022-08-19T04:42:07.015Z,10.18
2022-08-19T04:44:47.420Z,10.43
2022-08-19T04:47:47.908Z,10.90
2022-08-19T04:50:41.042Z,11.80
2022-08-19T04:53:21.418Z,11.50
2022-08-19T04:56:15.013Z,11.27
2022-08-19T04:58:55.144Z,11.85
2022-08-19T05:01:43.994Z,12.48
2022-08-19T05:04:27.082Z,12.85
2022-08-19T05:07:15.032Z,12.63
2022-08-19T05:10:01.995Z,13.52
2022-08-19T05:12:49.024Z,15.55
2022-08-19T05:15:29.099Z,13.25
2022-08-19T05:18:45.960Z,11.75
2022-08-19T05:21:46.597Z,10.68
2022-08-19T05:24:33.944Z,13.40
2022-08-19T05:27:14.758Z,10.10
2022-08-19T05:30:02.012Z,9.30
2022-08-19T05:32:48.986Z,10.02
2022-08-19T05:35:35.938Z,8.00
2022-08-19T05:38:22.984Z,8.00
2022-08-19T05:41:14.636Z,8.07
2022-08-19T05:44:00.977Z,7.47
2022-08-19T05:46:44.614Z,7.72
2022-08-19T05:49:30.988Z,8.32
2022-08-19T05:52:26.180Z,7.65
2022-08-19T05:55:06.432Z,8.77
2022-08-19T05:57:52.946Z,8.18
2022-08-19T06:00:33.095Z,8.27
2022-08-19T06:03:19.939Z,7.13
2022-08-19T06:06:00.571Z,8.65
2022-08-19T06:08:46.925Z,7.70
2022-08-19T06:11:35.933Z,7.60
2022-08-19T06:14:28.880Z,7.80
2022-08-19T06:17:16.933Z,7.35
2022-08-19T06:20:05.941Z,7.60
2022-08-19T06:22:54.908Z,7.75
2022-08-19T06:25:36.345Z,7.57
2022-08-19T06:28:23.105Z,8.57
2022-08-19T06:31:13.891Z,7.95
2022-08-19T06:33:55.035Z,7.50
2022-08-19T06:36:45.926Z,10.02
2022-08-19T06:39:40.959Z,8.88
2022-08-19T06:42:22.409Z,7.75
2022-08-19T06:45:11.887Z,6.82
2022-08-19T06:48:00.094Z,7.15
2022-08-19T06:50:45.087Z,6.97
2022-08-19T06:53:25.753Z,7.15
2022-08-19T06:56:12.879Z,6.93
2022-08-19T06:58:53.931Z,6.65
2022-08-19T07:01:40.880Z,7.07
2022-08-19T07:04:33.079Z,7.20
2022-08-19T07:07:21.333Z,7.18
2022-08-19T07:10:09.874Z,6.82
2022-08-19T07:12:57.905Z,7.30
2022-08-19T07:15:39.697Z,8.95
2022-08-19T07:18:27.224Z,7.22
2022-08-19T07:21:12.331Z,7.68
2022-08-19T07:24:01.885Z,7.38
2022-08-19T07:26:52.107Z,6.93
2022-08-19T07:29:31.969Z,7.80
2022-08-19T07:32:18.860Z,8.88
2022-08-19T07:34:59.079Z,7.57
2022-08-19T07:37:46.897Z,7.95
2022-08-19T07:40:26.979Z,7.07
2022-08-19T07:43:23.336Z,6.15
2022-08-19T07:46:03.053Z,6.47
2022-08-19T07:48:52.849Z,6.40
2022-08-19T07:51:36.292Z,6.80
2022-08-19T07:54:24.790Z,10.13
2022-08-19T07:57:05.970Z,8.23
2022-08-19T07:59:52.833Z,7.60
2022-08-19T08:02:32.953Z,7.53
2022-08-19T08:05:41.779Z,6.93
2022-08-19T08:08:48.860Z,7.03
2022-08-19T08:11:35.821Z,6.75
2022-08-19T08:14:29.601Z,7.18
2022-08-19T08:17:31.136Z,6.95
2022-08-19T08:20:27.965Z,7.00
2022-08-19T08:23:29.822Z,5.65
2022-08-19T08:26:16.759Z,6.88
2022-08-19T08:29:12.306Z,6.68
2022-08-19T08:32:01.808Z,6.72
2022-08-19T08:34:42.721Z,8.35
2022-08-19T08:37:29.773Z,6.45
2022-08-19T08:40:50.781Z,7.22
2022-08-19T08:43:49.815Z,5.60
2022-08-19T08:46:43.388Z,6.43
2022-08-19T08:49:42.786Z,5.40
2022-08-19T08:52:36.378Z,6.70
2022-08-19T08:55:36.728Z,6.25
2022-08-19T08:59:04.828Z,6.63
2022-08-19T09:01:51.817Z,6.82
2022-08-19T09:04:32.270Z,6.75
2022-08-19T09:07:38.874Z,7.47
2022-08-19T09:35:50.166Z,6.70
2022-08-19T09:38:34.882Z,6.55
2022-08-19T09:41:28.735Z,7.18
2022-08-19T09:44:13.928Z,7.25
2022-08-19T09:47:00.686Z,7.65
2022-08-19T09:49:41.738Z,6.18
2022-08-19T09:52:32.661Z,6.40
2022-08-19T09:55:19.678Z,6.20
2022-08-19T09:58:08.676Z,6.05
2022-08-19T10:00:51.022Z,6.35
2022-08-19T10:03:40.689Z,6.88
2022-08-19T10:06:45.520Z,6.53
2022-08-19T10:09:34.129Z,6.35
2022-08-19T10:12:17.863Z,7.40
2022-08-19T10:15:06.652Z,6.95
2022-08-19T10:17:48.066Z,6.15
2022-08-19T10:20:42.663Z,6.43
2022-08-19T10:23:24.048Z,6.57
2022-08-19T10:26:14.687Z,6.88
2022-08-19T10:28:57.222Z,6.20
2022-08-19T10:32:01.491Z,7.70
2022-08-19T10:34:57.637Z,5.50
2022-08-19T10:37:57.401Z,7.18
2022-08-19T10:40:37.785Z,6.60
2022-08-19T10:43:25.659Z,10.20
2022-08-19T10:46:14.155Z,6.15
2022-08-19T10:49:03.638Z,7.22
2022-08-19T10:52:04.626Z,6.63
2022-08-19T10:55:14.659Z,6.72
2022-08-19T10:58:03.287Z,6.82
2022-08-19T11:00:48.102Z,7.22
2022-08-19T11:03:38.629Z,7.78
2022-08-19T11:06:20.631Z,8.75
2022-08-19T11:09:12.627Z,7.83
2022-08-19T11:12:03.057Z,8.80
2022-08-19T11:14:51.632Z,9.10
2022-08-19T11:17:32.661Z,9.55
2022-08-19T11:20:19.588Z,7.57
2022-08-19T11:23:00.019Z,8.60
2022-08-19T11:25:53.635Z,9.75
2022-08-19T11:28:34.090Z,10.77
2022-08-19T11:31:31.598Z,9.90
2022-08-19T11:34:22.588Z,8.80
2022-08-19T11:37:04.648Z,9.95
2022-08-19T11:39:51.883Z,11.02
2022-08-19T11:42:58.602Z,10.98
2022-08-19T11:45:45.573Z,10.32
2022-08-19T11:48:33.570Z,9.50
2022-08-19T11:51:16.339Z,9.68
2022-08-19T11:54:03.586Z,11.25
2022-08-19T11:56:51.586Z,9.68
2022-08-19T11:59:31.758Z,9.95
2022-08-19T12:02:18.559Z,8.57
2022-08-19T12:05:10.199Z,9.80
2022-08-19T12:07:58.531Z,10.55
2022-08-19T12:10:38.712Z,10.80
2022-08-19T12:13:26.542Z,9.45
2022-08-19T12:16:07.507Z,9.27
2022-08-19T12:18:54.541Z,9.57
2022-08-19T12:21:35.636Z,10.20
2022-08-19T12:24:22.534Z,10.63
2022-08-19T12:27:12.583Z,9.65
2022-08-19T12:29:59.592Z,10.13
2022-08-19T12:32:47.548Z,10.10
2022-08-19T12:35:45.491Z,10.50
2022-08-19T12:38:26.011Z,10.00
2022-08-19T12:41:14.516Z,9.13
2022-08-19T12:44:01.541Z,9.05
2022-08-19T12:46:48.532Z,8.70
2022-08-19T12:49:53.388Z,9.15
2022-08-19T12:52:35.541Z,8.90
2022-08-19T12:55:22.480Z,9.23
2022-08-19T12:58:02.655Z,9.25
2022-08-19T13:00:49.523Z,8.73
2022-08-19T13:03:40.449Z,8.85
2022-08-19T13:06:27.491Z,9.80
2022-08-19T13:09:14.538Z,10.18
2022-08-19T13:12:01.469Z,9.40
2022-08-19T13:14:49.487Z,10.45
2022-08-19T13:17:36.620Z,9.27
2022-08-19T13:20:18.479Z,8.65
2022-08-19T13:23:05.498Z,9.65
2022-08-19T13:25:52.507Z,9.38
2022-08-19T13:28:58.498Z,8.95
2022-08-19T13:31:59.461Z,9.50
2022-08-19T13:34:47.500Z,9.63
2022-08-19T13:37:49.541Z,9.55
2022-08-19T13:40:36.459Z,9.65
2022-08-19T13:43:26.615Z,9.25
2022-08-19T13:46:07.449Z,7.60
2022-08-19T13:48:51.756Z,8.30
2022-08-19T13:51:38.442Z,8.00
2022-08-19T13:54:26.494Z,8.82
2022-08-19T13:57:06.594Z,9.18
2022-08-19T13:59:53.456Z,7.68
2022-08-19T14:02:40.454Z,8.20
2022-08-19T14:05:21.898Z,9.00
2022-08-19T14:08:08.468Z,7.63
2022-08-19T14:10:56.441Z,7.82
2022-08-19T14:13:43.460Z,7.78
2022-08-19T14:16:23.925Z,7.75
2022-08-19T14:19:10.431Z,8.13
2022-08-19T14:21:50.935Z,7.43
2022-08-19T14:24:37.398Z,7.50
2022-08-19T14:27:18.009Z,8.25
2022-08-19T14:30:04.591Z,7.00
2022-08-19T14:32:44.901Z,7.38
2022-08-19T14:35:31.433Z,6.93
2022-08-19T14:38:17.578Z,7.28
2022-08-19T14:41:05.435Z,7.18
2022-08-19T14:43:47.502Z,7.82
2022-08-19T14:46:38.418Z,7.90
2022-08-19T14:49:19.470Z,7.75
2022-08-19T14:52:06.401Z,7.85
2022-08-19T14:54:53.435Z,6.15
2022-08-19T14:57:33.534Z,7.35
2022-08-19T15:00:21.428Z,8.10
2022-08-19T15:03:01.529Z,7.57
2022-08-19T15:05:48.379Z,6.53
2022-08-19T15:08:28.516Z,6.57
2022-08-19T15:28:11.392Z,7.53
2022-08-19T15:30:59.410Z,6.65
2022-08-19T15:33:42.946Z,6.68
2022-08-19T15:36:30.390Z,6.53
2022-08-19T15:39:19.386Z,7.32
2022-08-19T15:42:07.371Z,7.88
2022-08-19T15:44:47.530Z,6.65
2022-08-19T15:47:37.359Z,7.93
2022-08-19T15:50:22.725Z,7.75
2022-08-19T15:53:13.383Z,7.43
2022-08-19T15:55:53.553Z,6.80
2022-08-19T15:58:59.368Z,7.28
2022-08-19T16:01:58.233Z,6.95
2022-08-19T16:05:04.368Z,7.30
2022-08-19T16:07:44.468Z,7.65
2022-08-19T16:10:32.366Z,6.95
2022-08-19T16:13:19.354Z,6.68
2022-08-19T16:16:06.383Z,7.78
2022-08-19T16:18:47.590Z,7.28
2022-08-19T16:21:39.350Z,7.13
2022-08-19T16:24:23.481Z,8.68
2022-08-19T16:27:10.348Z,7.45
2022-08-19T16:29:50.475Z,7.50
2022-08-19T16:32:37.332Z,7.75
2022-08-19T16:35:17.462Z,8.60
2022-08-19T16:38:04.358Z,7.47
2022-08-19T16:40:51.334Z,8.07
2022-08-19T16:43:38.345Z,7.75
2022-08-19T16:46:18.676Z,8.60
2022-08-19T16:49:06.393Z,7.93
2022-08-19T16:51:47.519Z,7.97
2022-08-19T16:54:35.365Z,7.78
2022-08-19T16:57:16.149Z,7.70
2022-08-19T17:00:03.324Z,8.43
2022-08-19T17:02:43.518Z,9.05
2022-08-19T17:05:30.286Z,7.50
2022-08-19T17:08:10.416Z,9.43
2022-08-19T17:11:16.914Z,10.63
2022-08-19T17:13:58.311Z,8.43
2022-08-19T17:16:47.384Z,7.63
2022-08-19T17:19:28.383Z,8.50
2022-08-19T17:22:15.330Z,8.60
2022-08-19T17:25:02.297Z,8.10
2022-08-19T17:27:56.366Z,9.20
2022-08-19T17:30:36.942Z,8.95
2022-08-19T17:33:24.305Z,8.23
2022-08-19T17:36:06.656Z,9.00
2022-08-19T17:38:53.252Z,9.32
2022-08-19T17:41:41.272Z,8.88
2022-08-19T17:44:21.424Z,8.07
2022-08-19T17:47:08.272Z,8.75
2022-08-19T17:49:48.460Z,7.72
2022-08-19T17:52:35.278Z,7.95
2022-08-19T17:55:15.539Z,7.82
2022-08-19T17:58:02.219Z,7.60
2022-08-19T18:00:52.734Z,8.60
2022-08-19T18:03:41.293Z,9.60
2022-08-19T18:06:29.255Z,9.43
2022-08-19T18:09:09.718Z,8.82
2022-08-19T18:11:56.237Z,9.20
2022-08-19T18:14:39.376Z,11.60
2022-08-19T18:17:31.251Z,11.52
2022-08-19T18:20:13.595Z,11.55
2022-08-19T18:23:41.226Z,11.25
2022-08-19T18:26:05.122Z,11.60
2022-08-19T18:28:52.213Z,11.00
2022-08-19T18:31:33.161Z,11.73
2022-08-19T18:34:20.224Z,10.27
2022-08-19T18:37:00.596Z,9.65
2022-08-19T18:40:05.272Z,10.48
2022-08-19T18:43:05.040Z,10.25
2022-08-19T18:46:12.216Z,8.95
2022-08-19T18:49:11.206Z,9.95
2022-08-19T18:51:51.573Z,10.50
2022-08-19T18:54:39.211Z,9.63
2022-08-19T18:57:24.881Z,10.50
2022-08-19T19:00:14.215Z,10.52
2022-08-19T19:02:54.699Z,10.60
2022-08-19T19:05:41.201Z,10.75
2022-08-19T19:08:26.991Z,9.88
2022-08-19T19:11:15.211Z,10.38
2022-08-19T19:14:02.179Z,9.68
2022-08-19T19:16:55.143Z,10.93
2022-08-19T19:19:43.193Z,10.95
2022-08-19T19:22:31.207Z,11.55
2022-08-19T19:25:18.190Z,10.30
2022-08-19T19:28:05.354Z,10.70
2022-08-19T19:30:46.205Z,12.27
2022-08-19T19:33:28.320Z,11.63
2022-08-19T19:36:15.142Z,11.60
2022-08-19T19:38:56.705Z,13.43
2022-08-19T19:41:43.138Z,12.65
2022-08-19T19:44:30.344Z,11.93
2022-08-19T19:47:18.120Z,12.18
2022-08-19T19:50:15.583Z,12.05
2022-08-19T19:53:03.149Z,13.05
2022-08-19T19:55:43.638Z,12.88
2022-08-19T19:58:30.159Z,11.85
2022-08-19T20:01:21.767Z,12.68
2022-08-19T20:04:05.325Z,11.18
2022-08-19T20:06:53.113Z,11.50
2022-08-19T20:09:58.783Z,11.50
2022-08-19T20:12:40.542Z,11.63
2022-08-19T20:15:28.129Z,12.77
2022-08-19T20:18:15.080Z,11.27
2022-08-19T20:20:55.318Z,13.40
2022-08-19T20:23:42.130Z,12.77
2022-08-19T20:26:32.296Z,11.57
2022-08-19T20:29:38.073Z,12.60
2022-08-19T20:32:19.267Z,12.05
2022-08-19T20:35:07.098Z,11.43
2022-08-19T20:37:47.272Z,12.82
2022-08-19T20:40:35.083Z,11.52
2022-08-19T20:43:17.461Z,12.05
2022-08-19T20:46:04.088Z,11.77
2022-08-19T20:48:44.241Z,12.35
2022-08-19T20:51:35.064Z,11.90
2022-08-19T20:54:15.196Z,12.65
2022-08-19T20:57:02.074Z,12.15
2022-08-19T20:59:49.062Z,11.88
2022-08-19T21:02:36.058Z,11.93
2022-08-19T21:05:25.271Z,11.45
2022-08-19T21:08:09.139Z,11.80
2022-08-19T21:10:56.096Z,11.88
2022-08-19T21:13:36.857Z,12.15
2022-08-19T21:16:24.054Z,10.52
2022-08-19T21:19:11.064Z,11.52
2022-08-19T21:21:58.020Z,10.85
2022-08-19T21:24:38.662Z,11.43
2022-08-19T21:27:25.054Z,11.35
2022-08-19T21:30:13.038Z,12.18
2022-08-19T21:33:00.039Z,11.35
2022-08-19T21:35:40.473Z,12.07
2022-08-19T21:38:27.032Z,11.15
2022-08-19T21:41:14.035Z,13.32
2022-08-19T21:43:54.197Z,11.73
2022-08-19T21:46:41.011Z,11.32
2022-08-19T21:49:21.258Z,11.57
2022-08-19T21:52:09.010Z,12.85
2022-08-19T21:54:49.167Z,10.95
2022-08-19T21:57:36.013Z,11.75
2022-08-19T22:00:26.184Z,10.18
2022-08-19T22:03:13.004Z,10.50
2022-08-19T22:05:59.994Z,11.88
2022-08-19T22:08:49.026Z,11.45
2022-08-19T22:11:33.895Z,10.85
2022-08-19T22:14:20.972Z,11.00
2022-08-19T22:17:03.952Z,10.55
2022-08-19T22:19:51.028Z,9.93
2022-08-19T22:22:34.083Z,10.20
2022-08-19T22:25:30.048Z,12.00
2022-08-19T22:28:28.957Z,11.38
2022-08-19T22:31:11.049Z,10.52
2022-08-19T22:33:58.994Z,10.60
2022-08-19T22:36:39.472Z,11.18
2022-08-19T22:39:25.948Z,10.75
2022-08-19T22:42:07.004Z,11.57
2022-08-19T22:44:53.957Z,9.90
2022-08-19T22:47:35.559Z,10.88
2022-08-19T22:50:25.937Z,9.15
2022-08-19T22:53:14.964Z,10.07
2022-08-19T22:56:01.954Z,10.48
2022-08-19T22:58:50.096Z,9.20
2022-08-19T23:01:30.724Z,9.48
2022-08-19T23:04:17.927Z,10.15
2022-08-19T23:06:58.100Z,10.23
2022-08-19T23:09:44.961Z,11.23
2022-08-19T23:12:45.400Z,12.32
2022-08-19T23:15:37.943Z,12.25
2022-08-19T23:18:20.182Z,12.52
2022-08-19T23:21:07.898Z,10.70
2022-08-19T23:23:48.043Z,11.10
2022-08-19T23:26:36.141Z,11.85
2022-08-19T23:29:48.484Z,12.30
2022-08-19T23:32:35.261Z,11.18
2022-08-19T23:35:21.923Z,12.38
2022-08-19T23:38:10.919Z,11.57
2022-08-19T23:40:57.928Z,11.80
2022-08-19T23:43:47.890Z,12.43
2022-08-19T23:46:31.010Z,12.52
2022-08-19T23:49:29.887Z,12.30
2022-08-19T23:52:10.032Z,33.80
2022-08-19T23:54:57.006Z,16.60
2022-08-19T23:57:37.023Z,15.10
